Motte Rimrock Reserve, California Weather observations

Data are for 10 minute period ending at time listed.
 Day   Time   Solar   Ave.   Ave.  Ave.  Vector  Max.   Baro.   Total    
  of    of     Rad.   Air    Rel.  Wind   Wind   Wind  Press.  Precip.   
Year   Day            Temp.  Hum.  Speed  Dir.   Gust                    
2020   (PST)  Kw/m2    F      %     mph   deg.    mph    mb.     in.     
-------------------------------------------------------------------------
 301    6:20   0.01   41.7    18    3.3   187     6.4   950.7    0.00 
 301    6:30   0.03   44.9    14    4.2   164     8.1   950.6    0.00 
 301    6:40   0.06   48.0    12    3.6   155     6.0   950.7    0.00 
 301    6:50   0.09   50.1    12    4.5   156     5.8   950.8    0.00 
 301    7:00   0.12   52.6    10    3.8   168     5.0   950.9    0.00 
 301    7:10   0.15   54.0    10    3.7   129     5.7   951.0    0.00 
 301    7:20   0.18   56.9     9    1.8   327     4.0   951.3    0.00 
 301    7:30   0.21   58.2     8    5.1   325     8.0   951.4    0.00 
 301    7:40   0.24   59.6     7    6.0   342     8.5   951.5    0.00 
 301    7:50   0.27   60.1     6    7.2   328    10.7   951.6    0.00 
 301    8:00   0.30   60.8     6    9.9   328    14.2   951.7    0.00 
 301    8:10   0.33   61.4     6    8.2   346    11.0   951.8    0.00 
 301    8:20   0.36   62.0     6    8.1   350    11.8   951.9    0.00 
 301    8:30   0.39   62.3     6    7.4   358    11.9   951.9    0.00 
 301    8:40   0.41   62.9     6    8.1   339    10.8   951.9    0.00 
 301    8:50   0.44   63.6     6    7.1   335    10.3   952.0    0.00 
 301    9:00   0.47   63.9     6    6.8   344    10.7   951.9    0.00 
 301    9:10   0.49   64.2     6    8.2   330    15.5   951.9    0.00 
 301    9:20   0.51   64.6     6    8.6   323    13.4   951.9    0.00 
 301    9:30   0.53   65.6     6   10.5   302    14.4   951.8    0.00 
 301    9:40   0.55   66.1     6   10.5   312    17.0   951.8    0.00 
 301    9:50   0.57   66.9     6    9.8   319    14.8   951.8    0.00 
 301   10:00   0.59   67.0     6    9.8   312    13.7   951.8    0.00 
 301   10:10   0.61   67.4     6    9.6   298    15.6   951.6    0.00 
 301   10:20   0.62   68.4     6    5.9   320    11.2   951.6    0.00 
 301   10:30   0.63   69.0     6    6.4   329    15.1   951.5    0.00 
 301   10:40   0.65   69.0     6   12.5   312    23.5   951.5    0.00 
 301   10:50   0.65   69.3     6   15.9   310    25.4   951.4    0.00 
 301   11:00   0.66   69.5     6   15.6   304    20.8   951.2    0.00 
 301   11:10   0.67   69.9     6   13.9   305    21.3   951.1    0.00 
 301   11:20   0.67   70.9     6   12.8   307    17.8   951.0    0.00 
 301   11:30   0.67   71.2     6   11.0   298    18.4   950.9    0.00 
 301   11:40   0.67   70.8     6   14.2   307    20.4   950.7    0.00 
 301   11:50   0.67   70.7     6   15.4   323    23.6   950.6    0.00 
 301   12:00   0.67   71.9     6   11.9   321    20.5   950.6    0.00 
 301   12:10   0.67   71.4     6   13.2   311    21.7   950.4    0.00 
 301   12:20   0.66   71.8     6   13.5   322    22.4   950.3    0.00 
 301   12:30   0.65   72.5     6    8.1     8    18.6   950.2    0.00 
 301   12:40   0.64   73.1     6    6.9   348    13.6   950.0    0.00 
 301   12:50   0.63   73.0     6    6.1    23    11.3   949.9    0.00 
 301   13:00   0.62   73.0     6    6.1    45    11.9   949.8    0.00 
 301   13:10   0.60   73.2     6    5.6    18     9.9   949.8    0.00 
 301   13:20   0.59   73.3     6    6.6    43    10.4   949.8    0.00 
 301   13:30   0.57   73.9     7   11.7   341    22.8   949.7    0.00 
 301   13:40   0.55   73.4     7   13.6   330    23.9   949.6    0.00 
 301   13:50   0.51   73.1     8   14.6   327    22.6   949.6    0.00 
 301   14:00   0.51   72.9     8   16.0   318    25.4   949.6    0.00 
 301   14:10   0.49   73.0     8   17.1   323    23.8   949.5    0.00 
 301   14:20   0.47   72.8     8   14.2   325    20.9   949.6    0.00 
 301   14:30   0.44   73.2     8   13.9   341    22.5   949.5    0.00 
 301   14:40   0.41   72.8     8   13.9   349    21.3   949.4    0.00 
 301   14:50   0.39   73.2     8   14.1   337    24.0   949.4    0.00 
 301   15:00   0.36   72.5     8   15.9   326    21.9   949.4    0.00 
 301   15:10   0.33   72.8     8   15.0   329    22.9   949.4    0.00 
 301   15:20   0.30   72.6     8   15.7   327    21.0   949.4    0.00 
 301   15:30   0.27   72.5     8   14.7   330    19.8   949.5    0.00 
 301   15:40   0.24   72.1     9   16.3   331    22.9   949.5    0.00 
 301   15:50   0.21   71.6     9   18.5   320    26.3   949.5    0.00 
 301   16:00   0.18   71.4    10   16.6   318    23.2   949.5    0.00 
 301   16:10   0.15   70.9    10   16.3   323    22.1   949.5    0.00 
 301   16:20   0.12   70.4    10   16.1   325    22.8   949.6    0.00 
 301   16:30   0.09   70.0    10   14.3   332    21.0   949.7    0.00 
 301   16:40   0.06   69.5    10   13.3   330    19.4   949.7    0.00 
 301   16:50   0.02   68.7    11   12.7   331    20.4   949.8    0.00 
 301   17:00   0.01   67.9    11   12.0   339    18.3   949.8    0.00 
 301   17:10   0.00   67.1    11    9.9   333    14.1   950.0    0.00 
 301   17:20   0.00   66.3    12    9.3   330    12.2   950.1    0.00 
 301   17:30   0.00   65.8    12    9.1   324    11.9   950.1    0.00 
 301   17:40   0.00   65.3    12    8.3   320    11.4   950.3    0.00 
 301   17:50   0.00   65.0    12    9.5   310    13.0   950.3    0.00 
 301   18:00   0.00   65.1    12    9.2   301    12.4   950.4    0.00 
 301   18:10   0.00   64.0    13    9.2   292    12.3   950.4    0.00 
 301   18:20   0.00   63.8    11    9.6   299    12.4   950.5    0.00 
 301   18:30   0.00   64.2    11   10.9   304    14.3   950.5    0.00 
 301   18:40   0.00   64.3    11   13.5   308    17.2   950.4    0.00 
 301   18:50   0.00   64.3    11   15.0   309    20.2   950.4    0.00 
 301   19:00   0.00   64.3    10   15.5   307    20.5   950.4    0.00 
 301   19:10   0.00   63.6    11   14.2   313    18.8   950.5    0.00 
 301   19:20   0.00   63.2    11   12.6   315    17.5   950.6    0.00 
 301   19:30   0.00   62.2    12   11.4   323    14.2   950.7    0.00 
 301   19:40   0.00   61.3    12    9.7   319    12.6   950.8    0.00 
 301   19:50   0.00   61.4    12   10.5   302    13.2   950.9    0.00 
 301   20:00   0.00   61.6    12   10.4   303    12.3   951.0    0.00 
 301   20:10   0.00   61.2    12    8.8   310    11.7   951.2    0.00 
 301   20:20   0.00   59.8    13    9.2   311    11.1   951.2    0.00 
 301   20:30   0.00   59.6    13    8.9   316    10.9   951.2    0.00 
 301   20:40   0.00   59.7    13    8.1   314    10.2   951.4    0.00 
 301   20:50   0.00   58.6    14    7.9   308    10.9   951.6    0.00 
 301   21:00   0.00   59.0    14    5.1   332     6.8   951.8    0.00 
 301   21:10   0.00   59.5    14    5.5    34     7.5   951.8    0.00 
 301   21:20   0.00   59.4    14    4.6    36     6.0   951.8    0.00 
 301   21:30   0.00   59.6    14    5.0    29     6.6   951.9    0.00 
 301   21:40   0.00   58.1    17    4.8    72     5.8   951.9    0.00 
 301   21:50   0.00   57.4    25    4.9    64     5.8   951.9    0.00 
 301   22:00   0.00   57.1    26    6.4   119     9.2   952.1    0.00 
 301   22:10   0.00   56.1    30    4.4   146     5.7   952.2    0.00 
 301   22:20   0.00   55.4    32    4.6   146     5.7   952.2    0.00 
 301   22:30   0.00   55.5    33    5.0   144     6.1   952.2    0.00 
 301   22:40   0.00   54.5    36    5.6   116     8.6   952.2    0.00 
 301   22:50   0.00   54.3    35    6.2   120     8.7   952.3    0.00 
 301   23:00   0.00   54.1    35    4.6   124     6.1   952.2    0.00 
 301   23:10   0.00   54.3    36    5.3   122     6.3   952.1    0.00 
 301   23:20   0.00   54.7    36    3.2   134     4.9   952.1    0.00 
 301   23:30   0.00   55.2    36    3.3   121     5.0   952.1    0.00 
 301   23:40   0.00   55.1    36    5.4   111     7.5   952.2    0.00 
 301   23:50   0.00   55.0    35    6.4   113     8.1   952.1    0.00 
 302    0:00   0.00   54.7    34    6.8   112     7.9   952.0    0.00 
 302    0:10   0.00   54.8    35    6.4   111     7.7   951.9    0.00 
 302    0:20   0.00   54.4    34    6.0   118     7.0   952.0    0.00 
 302    0:30   0.00   53.0    34    5.0   124     7.2   952.0    0.00 
 302    0:40   0.00   53.2    32    5.4   123     7.5   951.9    0.00 
 302    0:50   0.00   53.1    32    4.6   139     5.6   951.9    0.00 
 302    1:00   0.00   53.8    31    4.8   146     5.9   951.8    0.00 
 302    1:10   0.00   54.7    30    3.5   141     5.2   951.8    0.00 
 302    1:20   0.00   54.0    30    6.9   120     7.7   951.8    0.00 
 302    1:30   0.00   52.9    29    4.7   130     6.4   951.7    0.00 
 302    1:40   0.00   53.1    29    3.2   134     3.8   951.6    0.00 
 302    1:50   0.00   53.9    29    4.7   121     5.8   951.6    0.00 
 302    2:00   0.00   52.8    30    5.5   128     6.2   951.6    0.00 
 302    2:10   0.00   53.0    29    4.5   120     5.6   951.7    0.00 
 302    2:20   0.00   52.6    28    4.1   129     4.7   951.7    0.00 
 302    2:30   0.00   52.2    28    4.4   133     5.0   951.6    0.00 
 302    2:40   0.00   52.4    30    4.7   113     6.2   951.5    0.00 
 302    2:50   0.00   52.2    29    2.9   118     4.5   951.4    0.00 
 302    3:00   0.00   52.3    28    1.4   126     3.7   951.4    0.00 
 302    3:10   0.00   52.0    28    0.5   126     1.1   951.5    0.00 
 302    3:20   0.00   53.2    26    0.7   126     1.2   951.5    0.00 
 302    3:30   0.00   52.6    27    1.9   139     3.6   951.6    0.00 
 302    3:40   0.00   52.4    27    3.3   165     3.9   951.6    0.00 
 302    3:50   0.00   52.8    28    2.1   168     3.6   951.6    0.00 
 302    4:00   0.00   53.6    25    1.4   168     1.9   951.7    0.00 
 302    4:10   0.00   53.2    26    1.3   168     2.9   951.7    0.00 
 302    4:20   0.00   52.7    28    1.0   168     1.7   951.8    0.00 
 302    4:30   0.00   53.2    35    1.5   168     2.0   951.8    0.00 
 302    4:40   0.00   53.6    39    2.1   168     3.4   951.8    0.00 
 302    4:50   0.00   54.3    40    1.8   168     3.3   951.8    0.00 
 302    5:00   0.00   54.3    42    1.6   168     2.0   951.9    0.00 
 302    5:10   0.00   54.4    40    2.0   168     2.8   951.9    0.00 
 302    5:20   0.00   54.4    38    1.3   168     2.0   951.9    0.00 
 302    5:30   0.00   54.2    38    2.3   168     2.9   952.0    0.00 
 302    5:40   0.00   53.2    37    2.9   182     4.4   952.0    0.00 
 302    5:50   0.00   52.1    34    3.6   193     4.5   952.1    0.00 
 302    6:00   0.00   50.9    36    3.3   206     4.5   952.1    0.00 
 302    6:10   0.00   51.2    36    2.2   203     2.5   952.1    0.00 

Return to Motte Rimrock Reserve graphs page.


Western Regional Climate Center,wrcc@dri.edu